sensor_id;sensor_type;location;lat;lon;timestamp;temperature;humidity
26164;DHT22;13914;48.178;11.716;2024-03-25T00:01:29;4.80;12.00
26164;DHT22;13914;48.178;11.716;2024-03-25T00:03:55;4.80;12.00
26164;DHT22;13914;48.178;11.716;2024-03-25T00:06:20;4.80;12.00
26164;DHT22;13914;48.178;11.716;2024-03-25T00:08:46;4.80;12.00
26164;DHT22;13914;48.178;11.716;2024-03-25T00:11:12;4.80;12.00
26164;DHT22;13914;48.178;11.716;2024-03-25T00:13:38;4.80;12.10
26164;DHT22;13914;48.178;11.716;2024-03-25T00:16:04;4.80;12.00
26164;DHT22;13914;48.178;11.716;2024-03-25T00:18:30;4.80;12.10
26164;DHT22;13914;48.178;11.716;2024-03-25T00:20:57;4.80;12.00
26164;DHT22;13914;48.178;11.716;2024-03-25T00:23:22;4.80;12.00
26164;DHT22;13914;48.178;11.716;2024-03-25T00:25:48;4.80;11.90
26164;DHT22;13914;48.178;11.716;2024-03-25T00:28:14;4.80;11.90
26164;DHT22;13914;48.178;11.716;2024-03-25T00:30:39;4.80;11.80
26164;DHT22;13914;48.178;11.716;2024-03-25T00:33:05;4.80;11.70
26164;DHT22;13914;48.178;11.716;2024-03-25T00:35:32;4.80;11.90
26164;DHT22;13914;48.178;11.716;2024-03-25T00:37:58;4.80;12.00
26164;DHT22;13914;48.178;11.716;2024-03-25T00:40:24;4.80;11.90
26164;DHT22;13914;48.178;11.716;2024-03-25T00:42:50;4.80;11.70
26164;DHT22;13914;48.178;11.716;2024-03-25T00:45:15;4.80;12.00
26164;DHT22;13914;48.178;11.716;2024-03-25T00:47:41;4.80;11.90
26164;DHT22;13914;48.178;11.716;2024-03-25T00:50:07;4.80;11.90
26164;DHT22;13914;48.178;11.716;2024-03-25T00:52:34;4.80;11.80
26164;DHT22;13914;48.178;11.716;2024-03-25T00:55:00;4.80;11.90
26164;DHT22;13914;48.178;11.716;2024-03-25T00:57:26;4.80;11.80
26164;DHT22;13914;48.178;11.716;2024-03-25T00:59:52;4.80;11.80
26164;DHT22;13914;48.178;11.716;2024-03-25T01:02:18;4.80;11.80
26164;DHT22;13914;48.178;11.716;2024-03-25T01:04:43;4.80;11.90
26164;DHT22;13914;48.178;11.716;2024-03-25T01:07:09;4.80;11.80
26164;DHT22;13914;48.178;11.716;2024-03-25T01:09:35;4.80;11.70
26164;DHT22;13914;48.178;11.716;2024-03-25T01:12:00;4.80;11.70
26164;DHT22;13914;48.178;11.716;2024-03-25T01:14:26;4.80;11.80
26164;DHT22;13914;48.178;11.716;2024-03-25T01:16:52;4.80;11.90
26164;DHT22;13914;48.178;11.716;2024-03-25T01:19:18;4.80;11.70
26164;DHT22;13914;48.178;11.716;2024-03-25T01:21:44;4.80;11.60
26164;DHT22;13914;48.178;11.716;2024-03-25T01:24:09;4.80;11.40
26164;DHT22;13914;48.178;11.716;2024-03-25T01:26:35;4.80;11.40
26164;DHT22;13914;48.178;11.716;2024-03-25T01:29:02;4.80;11.60
26164;DHT22;13914;48.178;11.716;2024-03-25T01:31:27;4.80;11.40
26164;DHT22;13914;48.178;11.716;2024-03-25T01:33:53;4.80;11.20
26164;DHT22;13914;48.178;11.716;2024-03-25T01:36:19;4.80;11.30
26164;DHT22;13914;48.178;11.716;2024-03-25T01:38:45;4.80;11.40
26164;DHT22;13914;48.178;11.716;2024-03-25T01:41:11;4.80;11.40
26164;DHT22;13914;48.178;11.716;2024-03-25T01:43:37;4.80;11.50
26164;DHT22;13914;48.178;11.716;2024-03-25T01:46:04;4.80;11.40
26164;DHT22;13914;48.178;11.716;2024-03-25T01:48:31;4.80;11.40
26164;DHT22;13914;48.178;11.716;2024-03-25T01:50:56;4.70;11.30
26164;DHT22;13914;48.178;11.716;2024-03-25T01:53:23;4.80;11.70
26164;DHT22;13914;48.178;11.716;2024-03-25T01:55:49;4.80;11.90
26164;DHT22;13914;48.178;11.716;2024-03-25T01:58:16;4.70;11.90
26164;DHT22;13914;48.178;11.716;2024-03-25T02:00:42;4.70;11.80
26164;DHT22;13914;48.178;11.716;2024-03-25T02:03:08;4.70;11.80
26164;DHT22;13914;48.178;11.716;2024-03-25T02:05:34;4.70;11.70
26164;DHT22;13914;48.178;11.716;2024-03-25T02:08:00;4.70;11.80
26164;DHT22;13914;48.178;11.716;2024-03-25T02:10:26;4.70;11.90
26164;DHT22;13914;48.178;11.716;2024-03-25T02:12:53;4.70;11.80
26164;DHT22;13914;48.178;11.716;2024-03-25T02:15:18;4.70;12.00
26164;DHT22;13914;48.178;11.716;2024-03-25T02:17:44;4.70;11.80
26164;DHT22;13914;48.178;11.716;2024-03-25T02:20:10;4.70;11.70
26164;DHT22;13914;48.178;11.716;2024-03-25T02:22:37;4.70;11.70
26164;DHT22;13914;48.178;11.716;2024-03-25T02:25:12;4.70;11.90
26164;DHT22;13914;48.178;11.716;2024-03-25T02:27:39;4.70;11.80
26164;DHT22;13914;48.178;11.716;2024-03-25T02:32:33;4.70;11.60
26164;DHT22;13914;48.178;11.716;2024-03-25T02:34:59;4.70;11.50
26164;DHT22;13914;48.178;11.716;2024-03-25T02:37:25;4.70;11.60
26164;DHT22;13914;48.178;11.716;2024-03-25T02:39:51;4.70;11.80
26164;DHT22;13914;48.178;11.716;2024-03-25T02:42:19;4.70;11.60
26164;DHT22;13914;48.178;11.716;2024-03-25T02:44:45;4.70;11.50
26164;DHT22;13914;48.178;11.716;2024-03-25T02:47:10;4.70;11.70
26164;DHT22;13914;48.178;11.716;2024-03-25T02:49:37;4.70;11.60
26164;DHT22;13914;48.178;11.716;2024-03-25T02:52:03;4.70;11.60
26164;DHT22;13914;48.178;11.716;2024-03-25T02:54:28;4.70;11.50
26164;DHT22;13914;48.178;11.716;2024-03-25T02:56:54;4.70;11.40
26164;DHT22;13914;48.178;11.716;2024-03-25T02:59:20;4.70;11.70
26164;DHT22;13914;48.178;11.716;2024-03-25T03:01:45;4.70;11.60
26164;DHT22;13914;48.178;11.716;2024-03-25T03:04:11;4.60;11.50
26164;DHT22;13914;48.178;11.716;2024-03-25T03:06:37;4.70;11.50
26164;DHT22;13914;48.178;11.716;2024-03-25T03:09:02;4.70;11.70
26164;DHT22;13914;48.178;11.716;2024-03-25T03:11:28;4.70;11.70
26164;DHT22;13914;48.178;11.716;2024-03-25T03:13:53;4.60;11.60
26164;DHT22;13914;48.178;11.716;2024-03-25T03:16:19;4.60;11.60
26164;DHT22;13914;48.178;11.716;2024-03-25T03:18:45;4.60;11.60
26164;DHT22;13914;48.178;11.716;2024-03-25T03:21:10;4.60;11.60
26164;DHT22;13914;48.178;11.716;2024-03-25T03:23:36;4.60;11.70
26164;DHT22;13914;48.178;11.716;2024-03-25T03:26:02;4.60;11.60
26164;DHT22;13914;48.178;11.716;2024-03-25T03:28:27;4.60;11.60
26164;DHT22;13914;48.178;11.716;2024-03-25T03:30:54;4.60;11.70
26164;DHT22;13914;48.178;11.716;2024-03-25T03:33:19;4.60;11.70
26164;DHT22;13914;48.178;11.716;2024-03-25T03:35:45;4.60;11.70
26164;DHT22;13914;48.178;11.716;2024-03-25T03:38:11;4.60;11.60
26164;DHT22;13914;48.178;11.716;2024-03-25T03:40:36;4.60;11.60
26164;DHT22;13914;48.178;11.716;2024-03-25T03:43:02;4.60;11.60
26164;DHT22;13914;48.178;11.716;2024-03-25T03:45:32;4.60;11.50
26164;DHT22;13914;48.178;11.716;2024-03-25T03:47:58;4.60;11.50
26164;DHT22;13914;48.178;11.716;2024-03-25T03:50:24;4.60;12.20
26164;DHT22;13914;48.178;11.716;2024-03-25T03:52:49;4.60;11.50
26164;DHT22;13914;48.178;11.716;2024-03-25T03:55:15;4.60;11.60
26164;DHT22;13914;48.178;11.716;2024-03-25T03:57:41;4.60;11.60
26164;DHT22;13914;48.178;11.716;2024-03-25T04:00:08;4.60;11.60
26164;DHT22;13914;48.178;11.716;2024-03-25T04:02:37;4.60;11.80
26164;DHT22;13914;48.178;11.716;2024-03-25T04:05:03;4.60;11.80
26164;DHT22;13914;48.178;11.716;2024-03-25T04:07:29;4.60;11.60
26164;DHT22;13914;48.178;11.716;2024-03-25T04:09:57;4.60;11.60
26164;DHT22;13914;48.178;11.716;2024-03-25T04:12:23;4.60;11.60
26164;DHT22;13914;48.178;11.716;2024-03-25T04:14:49;4.60;11.40
26164;DHT22;13914;48.178;11.716;2024-03-25T04:17:20;4.60;11.40
26164;DHT22;13914;48.178;11.716;2024-03-25T04:19:50;4.60;11.50
26164;DHT22;13914;48.178;11.716;2024-03-25T04:22:16;4.60;11.40
26164;DHT22;13914;48.178;11.716;2024-03-25T04:24:44;4.60;11.30
26164;DHT22;13914;48.178;11.716;2024-03-25T04:27:10;4.60;11.40
26164;DHT22;13914;48.178;11.716;2024-03-25T04:29:36;4.60;11.40
26164;DHT22;13914;48.178;11.716;2024-03-25T04:32:01;4.60;11.20
26164;DHT22;13914;48.178;11.716;2024-03-25T04:34:28;4.50;11.10
26164;DHT22;13914;48.178;11.716;2024-03-25T04:36:55;4.60;11.20
26164;DHT22;13914;48.178;11.716;2024-03-25T04:39:21;4.50;11.00
26164;DHT22;13914;48.178;11.716;2024-03-25T04:41:47;4.50;11.10
26164;DHT22;13914;48.178;11.716;2024-03-25T04:44:13;4.50;10.90
26164;DHT22;13914;48.178;11.716;2024-03-25T04:46:39;4.50;10.90
26164;DHT22;13914;48.178;11.716;2024-03-25T04:49:05;4.50;10.90
26164;DHT22;13914;48.178;11.716;2024-03-25T04:51:31;4.50;10.90
26164;DHT22;13914;48.178;11.716;2024-03-25T04:53:57;4.50;10.80
26164;DHT22;13914;48.178;11.716;2024-03-25T04:56:22;4.50;10.80
26164;DHT22;13914;48.178;11.716;2024-03-25T04:58:48;4.50;10.80
26164;DHT22;13914;48.178;11.716;2024-03-25T05:01:14;4.50;10.80
26164;DHT22;13914;48.178;11.716;2024-03-25T05:03:39;4.50;10.80
26164;DHT22;13914;48.178;11.716;2024-03-25T05:06:05;4.40;10.70
26164;DHT22;13914;48.178;11.716;2024-03-25T05:08:34;4.50;10.70
26164;DHT22;13914;48.178;11.716;2024-03-25T05:11:00;4.40;10.60
26164;DHT22;13914;48.178;11.716;2024-03-25T05:13:25;4.40;10.70
26164;DHT22;13914;48.178;11.716;2024-03-25T05:15:51;4.40;10.70
26164;DHT22;13914;48.178;11.716;2024-03-25T05:18:17;4.40;10.70
26164;DHT22;13914;48.178;11.716;2024-03-25T05:20:43;4.40;10.60
26164;DHT22;13914;48.178;11.716;2024-03-25T05:23:09;4.40;10.60
26164;DHT22;13914;48.178;11.716;2024-03-25T05:25:35;4.30;10.60
26164;DHT22;13914;48.178;11.716;2024-03-25T05:28:01;4.30;10.70
26164;DHT22;13914;48.178;11.716;2024-03-25T05:30:27;4.30;10.70
26164;DHT22;13914;48.178;11.716;2024-03-25T05:32:52;4.30;10.60
26164;DHT22;13914;48.178;11.716;2024-03-25T05:35:18;4.30;10.60
26164;DHT22;13914;48.178;11.716;2024-03-25T05:37:44;4.30;10.60
26164;DHT22;13914;48.178;11.716;2024-03-25T05:40:09;4.20;10.60
26164;DHT22;13914;48.178;11.716;2024-03-25T05:42:40;4.20;10.70
26164;DHT22;13914;48.178;11.716;2024-03-25T05:45:06;4.20;10.60
26164;DHT22;13914;48.178;11.716;2024-03-25T05:47:32;4.20;10.70
26164;DHT22;13914;48.178;11.716;2024-03-25T05:49:58;4.20;10.70
26164;DHT22;13914;48.178;11.716;2024-03-25T05:52:28;4.20;10.80
26164;DHT22;13914;48.178;11.716;2024-03-25T05:54:54;4.20;10.80
26164;DHT22;13914;48.178;11.716;2024-03-25T05:57:19;4.20;11.00
26164;DHT22;13914;48.178;11.716;2024-03-25T05:59:46;4.20;10.90
26164;DHT22;13914;48.178;11.716;2024-03-25T06:02:11;4.20;11.00
26164;DHT22;13914;48.178;11.716;2024-03-25T06:04:37;4.20;10.90
26164;DHT22;13914;48.178;11.716;2024-03-25T06:07:03;4.20;11.00
26164;DHT22;13914;48.178;11.716;2024-03-25T06:09:28;4.20;11.00
26164;DHT22;13914;48.178;11.716;2024-03-25T06:11:54;4.20;11.00
26164;DHT22;13914;48.178;11.716;2024-03-25T06:14:20;4.20;11.00
26164;DHT22;13914;48.178;11.716;2024-03-25T06:16:45;4.20;11.00
26164;DHT22;13914;48.178;11.716;2024-03-25T06:19:11;4.20;11.10
26164;DHT22;13914;48.178;11.716;2024-03-25T06:21:37;4.20;11.10
26164;DHT22;13914;48.178;11.716;2024-03-25T06:24:03;4.30;11.10
26164;DHT22;13914;48.178;11.716;2024-03-25T06:26:28;4.30;11.60
26164;DHT22;13914;48.178;11.716;2024-03-25T06:28:54;4.30;11.00
26164;DHT22;13914;48.178;11.716;2024-03-25T06:31:20;4.30;11.00
26164;DHT22;13914;48.178;11.716;2024-03-25T06:34:04;4.30;11.00
26164;DHT22;13914;48.178;11.716;2024-03-25T06:36:48;4.30;11.00
26164;DHT22;13914;48.178;11.716;2024-03-25T06:39:14;4.40;11.10
26164;DHT22;13914;48.178;11.716;2024-03-25T06:41:40;4.40;11.10
26164;DHT22;13914;48.178;11.716;2024-03-25T06:44:06;4.40;11.20
26164;DHT22;13914;48.178;11.716;2024-03-25T06:46:34;4.40;11.10
26164;DHT22;13914;48.178;11.716;2024-03-25T06:49:00;4.40;11.10
26164;DHT22;13914;48.178;11.716;2024-03-25T06:51:26;4.50;11.10
26164;DHT22;13914;48.178;11.716;2024-03-25T06:53:52;4.50;11.20
26164;DHT22;13914;48.178;11.716;2024-03-25T06:56:18;4.50;11.20
26164;DHT22;13914;48.178;11.716;2024-03-25T06:58:43;4.50;11.20
26164;DHT22;13914;48.178;11.716;2024-03-25T07:01:09;4.60;11.20
26164;DHT22;13914;48.178;11.716;2024-03-25T07:03:37;4.60;11.20
26164;DHT22;13914;48.178;11.716;2024-03-25T07:06:03;4.60;11.20
26164;DHT22;13914;48.178;11.716;2024-03-25T07:08:29;4.60;11.30
26164;DHT22;13914;48.178;11.716;2024-03-25T07:10:58;4.70;11.30
26164;DHT22;13914;48.178;11.716;2024-03-25T07:13:24;4.80;11.40
26164;DHT22;13914;48.178;11.716;2024-03-25T07:15:50;4.90;11.60
26164;DHT22;13914;48.178;11.716;2024-03-25T07:18:15;4.90;11.80
26164;DHT22;13914;48.178;11.716;2024-03-25T07:20:42;5.00;12.30
26164;DHT22;13914;48.178;11.716;2024-03-25T07:23:08;5.00;12.50
26164;DHT22;13914;48.178;11.716;2024-03-25T07:25:34;5.10;12.90
26164;DHT22;13914;48.178;11.716;2024-03-25T07:28:01;5.20;13.00
26164;DHT22;13914;48.178;11.716;2024-03-25T07:30:27;5.30;13.20
26164;DHT22;13914;48.178;11.716;2024-03-25T07:32:57;5.40;13.30
26164;DHT22;13914;48.178;11.716;2024-03-25T07:35:25;5.50;13.20
26164;DHT22;13914;48.178;11.716;2024-03-25T07:37:51;5.60;13.00
26164;DHT22;13914;48.178;11.716;2024-03-25T07:40:18;5.60;13.20
26164;DHT22;13914;48.178;11.716;2024-03-25T07:42:44;5.80;13.30
26164;DHT22;13914;48.178;11.716;2024-03-25T07:45:10;5.90;13.20
26164;DHT22;13914;48.178;11.716;2024-03-25T07:47:35;6.00;12.90
26164;DHT22;13914;48.178;11.716;2024-03-25T07:50:01;6.10;12.90
26164;DHT22;13914;48.178;11.716;2024-03-25T07:52:27;6.10;12.70
26164;DHT22;13914;48.178;11.716;2024-03-25T07:54:56;6.20;12.50
26164;DHT22;13914;48.178;11.716;2024-03-25T07:57:21;6.30;12.30
26164;DHT22;13914;48.178;11.716;2024-03-25T07:59:47;6.30;12.00
26164;DHT22;13914;48.178;11.716;2024-03-25T08:02:13;6.40;12.00
26164;DHT22;13914;48.178;11.716;2024-03-25T08:04:39;6.40;11.30
26164;DHT22;13914;48.178;11.716;2024-03-25T08:07:04;6.50;11.10
26164;DHT22;13914;48.178;11.716;2024-03-25T08:09:30;6.50;11.00
26164;DHT22;13914;48.178;11.716;2024-03-25T08:11:56;6.60;10.80
26164;DHT22;13914;48.178;11.716;2024-03-25T08:14:22;6.60;10.60
26164;DHT22;13914;48.178;11.716;2024-03-25T08:16:48;6.60;10.90
26164;DHT22;13914;48.178;11.716;2024-03-25T08:19:14;6.70;10.30
26164;DHT22;13914;48.178;11.716;2024-03-25T08:21:39;6.70;10.40
26164;DHT22;13914;48.178;11.716;2024-03-25T08:24:05;6.80;10.50
26164;DHT22;13914;48.178;11.716;2024-03-25T08:26:31;6.80;10.50
26164;DHT22;13914;48.178;11.716;2024-03-25T08:28:57;6.80;10.20
26164;DHT22;13914;48.178;11.716;2024-03-25T08:31:22;6.90;10.40
26164;DHT22;13914;48.178;11.716;2024-03-25T08:33:48;7.00;10.50
26164;DHT22;13914;48.178;11.716;2024-03-25T08:36:14;7.00;10.50
26164;DHT22;13914;48.178;11.716;2024-03-25T08:38:39;7.10;10.60
26164;DHT22;13914;48.178;11.716;2024-03-25T08:41:05;7.10;10.60
26164;DHT22;13914;48.178;11.716;2024-03-25T08:43:31;7.20;10.40
26164;DHT22;13914;48.178;11.716;2024-03-25T08:45:57;7.30;10.60
26164;DHT22;13914;48.178;11.716;2024-03-25T08:48:23;7.30;10.60
26164;DHT22;13914;48.178;11.716;2024-03-25T08:50:48;7.40;10.60
26164;DHT22;13914;48.178;11.716;2024-03-25T08:53:14;7.50;10.50
26164;DHT22;13914;48.178;11.716;2024-03-25T08:55:46;7.60;10.10
26164;DHT22;13914;48.178;11.716;2024-03-25T08:58:15;7.70;10.40
26164;DHT22;13914;48.178;11.716;2024-03-25T09:00:41;7.80;9.90
26164;DHT22;13914;48.178;11.716;2024-03-25T09:03:07;7.90;9.90
26164;DHT22;13914;48.178;11.716;2024-03-25T09:05:33;7.90;9.70
26164;DHT22;13914;48.178;11.716;2024-03-25T09:08:00;8.00;9.20
26164;DHT22;13914;48.178;11.716;2024-03-25T09:10:26;8.10;9.40
26164;DHT22;13914;48.178;11.716;2024-03-25T09:13:10;8.20;9.30
26164;DHT22;13914;48.178;11.716;2024-03-25T09:15:36;8.30;8.80
26164;DHT22;13914;48.178;11.716;2024-03-25T09:18:02;8.40;9.20
26164;DHT22;13914;48.178;11.716;2024-03-25T09:20:28;8.50;9.00
26164;DHT22;13914;48.178;11.716;2024-03-25T09:22:53;8.50;8.90
26164;DHT22;13914;48.178;11.716;2024-03-25T09:25:19;8.60;8.50
26164;DHT22;13914;48.178;11.716;2024-03-25T09:27:45;8.70;8.00
26164;DHT22;13914;48.178;11.716;2024-03-25T09:30:12;8.80;8.90
26164;DHT22;13914;48.178;11.716;2024-03-25T09:32:39;8.90;8.50
26164;DHT22;13914;48.178;11.716;2024-03-25T09:35:05;9.00;7.80
26164;DHT22;13914;48.178;11.716;2024-03-25T09:37:31;9.10;7.90
26164;DHT22;13914;48.178;11.716;2024-03-25T09:39:57;9.10;7.60
26164;DHT22;13914;48.178;11.716;2024-03-25T09:42:27;9.20;7.20
26164;DHT22;13914;48.178;11.716;2024-03-25T09:44:54;9.30;7.90
26164;DHT22;13914;48.178;11.716;2024-03-25T09:47:21;9.40;7.20
26164;DHT22;13914;48.178;11.716;2024-03-25T09:49:47;9.50;7.50
26164;DHT22;13914;48.178;11.716;2024-03-25T09:52:13;9.60;7.50
26164;DHT22;13914;48.178;11.716;2024-03-25T09:54:42;9.60;7.40
26164;DHT22;13914;48.178;11.716;2024-03-25T09:57:08;9.70;7.20
26164;DHT22;13914;48.178;11.716;2024-03-25T09:59:34;9.80;6.70
26164;DHT22;13914;48.178;11.716;2024-03-25T10:01:59;9.90;7.30
26164;DHT22;13914;48.178;11.716;2024-03-25T10:04:26;9.90;7.10
26164;DHT22;13914;48.178;11.716;2024-03-25T10:06:52;10.00;6.60
26164;DHT22;13914;48.178;11.716;2024-03-25T10:09:19;10.10;6.80
26164;DHT22;13914;48.178;11.716;2024-03-25T10:11:46;10.20;6.10
26164;DHT22;13914;48.178;11.716;2024-03-25T10:14:14;10.30;5.90
26164;DHT22;13914;48.178;11.716;2024-03-25T10:16:42;10.40;5.60
26164;DHT22;13914;48.178;11.716;2024-03-25T10:19:08;10.40;4.20
26164;DHT22;13914;48.178;11.716;2024-03-25T10:21:34;10.50;4.60
26164;DHT22;13914;48.178;11.716;2024-03-25T10:24:00;10.60;4.20
26164;DHT22;13914;48.178;11.716;2024-03-25T10:26:29;10.70;4.50
26164;DHT22;13914;48.178;11.716;2024-03-25T10:31:30;10.80;5.50
26164;DHT22;13914;48.178;11.716;2024-03-25T10:33:56;10.90;5.50
26164;DHT22;13914;48.178;11.716;2024-03-25T10:36:21;10.90;5.40
26164;DHT22;13914;48.178;11.716;2024-03-25T10:38:51;11.00;5.70
26164;DHT22;13914;48.178;11.716;2024-03-25T10:41:20;11.10;5.80
26164;DHT22;13914;48.178;11.716;2024-03-25T10:43:46;11.20;5.90
26164;DHT22;13914;48.178;11.716;2024-03-25T10:46:19;11.30;5.50
26164;DHT22;13914;48.178;11.716;2024-03-25T10:48:52;11.40;5.40
26164;DHT22;13914;48.178;11.716;2024-03-25T10:51:20;11.40;4.20
26164;DHT22;13914;48.178;11.716;2024-03-25T10:53:47;11.60;4.70
26164;DHT22;13914;48.178;11.716;2024-03-25T10:56:15;11.70;4.10
26164;DHT22;13914;48.178;11.716;2024-03-25T10:58:42;11.80;4.10
26164;DHT22;13914;48.178;11.716;2024-03-25T11:01:09;11.80;4.40
26164;DHT22;13914;48.178;11.716;2024-03-25T11:03:36;11.90;4.30
26164;DHT22;13914;48.178;11.716;2024-03-25T11:06:02;12.00;4.80
26164;DHT22;13914;48.178;11.716;2024-03-25T11:08:31;12.10;5.00
26164;DHT22;13914;48.178;11.716;2024-03-25T11:10:57;12.20;4.90
26164;DHT22;13914;48.178;11.716;2024-03-25T11:13:23;12.30;4.90
26164;DHT22;13914;48.178;11.716;2024-03-25T11:15:49;12.40;4.80
26164;DHT22;13914;48.178;11.716;2024-03-25T11:18:15;12.40;5.00
26164;DHT22;13914;48.178;11.716;2024-03-25T11:20:42;12.50;4.70
26164;DHT22;13914;48.178;11.716;2024-03-25T11:23:08;12.60;4.80
26164;DHT22;13914;48.178;11.716;2024-03-25T11:25:36;12.70;4.10
26164;DHT22;13914;48.178;11.716;2024-03-25T11:28:02;12.80;4.20
26164;DHT22;13914;48.178;11.716;2024-03-25T11:30:29;12.90;3.10
26164;DHT22;13914;48.178;11.716;2024-03-25T11:32:56;13.00;2.10
26164;DHT22;13914;48.178;11.716;2024-03-25T11:35:23;13.10;2.20
26164;DHT22;13914;48.178;11.716;2024-03-25T11:37:49;13.10;3.20
26164;DHT22;13914;48.178;11.716;2024-03-25T11:40:17;13.20;4.00
26164;DHT22;13914;48.178;11.716;2024-03-25T11:42:43;13.30;4.30
26164;DHT22;13914;48.178;11.716;2024-03-25T11:45:18;13.40;4.60
26164;DHT22;13914;48.178;11.716;2024-03-25T11:47:45;13.50;4.80
26164;DHT22;13914;48.178;11.716;2024-03-25T11:50:20;13.50;4.20
26164;DHT22;13914;48.178;11.716;2024-03-25T11:52:46;13.60;3.40
26164;DHT22;13914;48.178;11.716;2024-03-25T11:55:21;13.70;4.00
26164;DHT22;13914;48.178;11.716;2024-03-25T11:57:46;13.80;3.90
26164;DHT22;13914;48.178;11.716;2024-03-25T12:00:20;13.90;3.10
26164;DHT22;13914;48.178;11.716;2024-03-25T12:02:46;13.90;1.00
26164;DHT22;13914;48.178;11.716;2024-03-25T12:05:12;14.00;1.00
26164;DHT22;13914;48.178;11.716;2024-03-25T12:07:38;14.10;1.60
26164;DHT22;13914;48.178;11.716;2024-03-25T12:10:03;14.10;2.10
26164;DHT22;13914;48.178;11.716;2024-03-25T12:12:48;14.10;1.00
26164;DHT22;13914;48.178;11.716;2024-03-25T12:15:16;14.30;1.00
26164;DHT22;13914;48.178;11.716;2024-03-25T12:17:41;14.30;1.20
26164;DHT22;13914;48.178;11.716;2024-03-25T12:20:08;14.30;1.40
26164;DHT22;13914;48.178;11.716;2024-03-25T12:22:37;14.40;2.40
26164;DHT22;13914;48.178;11.716;2024-03-25T12:25:04;14.40;2.80
26164;DHT22;13914;48.178;11.716;2024-03-25T12:27:33;14.50;1.00
26164;DHT22;13914;48.178;11.716;2024-03-25T12:30:09;14.60;1.00
26164;DHT22;13914;48.178;11.716;2024-03-25T12:32:42;14.60;1.00
26164;DHT22;13914;48.178;11.716;2024-03-25T12:35:12;14.60;1.50
26164;DHT22;13914;48.178;11.716;2024-03-25T12:37:39;14.70;1.00
26164;DHT22;13914;48.178;11.716;2024-03-25T12:40:07;14.70;1.80
26164;DHT22;13914;48.178;11.716;2024-03-25T12:42:35;14.80;1.00
26164;DHT22;13914;48.178;11.716;2024-03-25T12:45:01;14.90;1.50
26164;DHT22;13914;48.178;11.716;2024-03-25T12:47:28;14.90;1.00
26164;DHT22;13914;48.178;11.716;2024-03-25T12:49:54;14.90;1.00
26164;DHT22;13914;48.178;11.716;2024-03-25T12:52:20;15.00;1.70
26164;DHT22;13914;48.178;11.716;2024-03-25T12:54:46;15.10;2.20
26164;DHT22;13914;48.178;11.716;2024-03-25T12:57:12;15.10;2.30
26164;DHT22;13914;48.178;11.716;2024-03-25T12:59:38;15.10;3.30
26164;DHT22;13914;48.178;11.716;2024-03-25T13:02:03;15.30;3.90
26164;DHT22;13914;48.178;11.716;2024-03-25T13:04:29;15.30;1.00
26164;DHT22;13914;48.178;11.716;2024-03-25T13:06:55;15.40;1.00
26164;DHT22;13914;48.178;11.716;2024-03-25T13:09:21;15.40;1.00
26164;DHT22;13914;48.178;11.716;2024-03-25T13:11:46;15.40;1.00
26164;DHT22;13914;48.178;11.716;2024-03-25T13:14:12;15.50;2.00
26164;DHT22;13914;48.178;11.716;2024-03-25T13:16:38;15.60;1.20
26164;DHT22;13914;48.178;11.716;2024-03-25T13:19:04;15.60;3.00
26164;DHT22;13914;48.178;11.716;2024-03-25T13:21:30;15.70;2.00
26164;DHT22;13914;48.178;11.716;2024-03-25T13:23:57;15.80;1.70
26164;DHT22;13914;48.178;11.716;2024-03-25T13:26:22;15.90;1.30
26164;DHT22;13914;48.178;11.716;2024-03-25T13:28:48;15.90;3.10
26164;DHT22;13914;48.178;11.716;2024-03-25T13:31:14;15.90;1.50
26164;DHT22;13914;48.178;11.716;2024-03-25T13:33:40;16.00;3.20
26164;DHT22;13914;48.178;11.716;2024-03-25T13:36:06;16.10;3.60
26164;DHT22;13914;48.178;11.716;2024-03-25T13:38:33;16.10;2.90
26164;DHT22;13914;48.178;11.716;2024-03-25T13:41:02;16.20;2.50
26164;DHT22;13914;48.178;11.716;2024-03-25T13:43:28;16.20;1.00
26164;DHT22;13914;48.178;11.716;2024-03-25T13:45:54;16.30;1.00
26164;DHT22;13914;48.178;11.716;2024-03-25T13:48:19;16.30;1.60
26164;DHT22;13914;48.178;11.716;2024-03-25T13:50:45;16.30;1.10
26164;DHT22;13914;48.178;11.716;2024-03-25T13:53:11;16.50;1.00
26164;DHT22;13914;48.178;11.716;2024-03-25T13:55:37;16.50;1.00
26164;DHT22;13914;48.178;11.716;2024-03-25T13:58:02;16.50;1.00
26164;DHT22;13914;48.178;11.716;2024-03-25T14:00:28;16.50;1.00
26164;DHT22;13914;48.178;11.716;2024-03-25T14:02:54;16.50;1.00
26164;DHT22;13914;48.178;11.716;2024-03-25T14:05:20;16.60;1.00
26164;DHT22;13914;48.178;11.716;2024-03-25T14:07:46;16.50;1.00
26164;DHT22;13914;48.178;11.716;2024-03-25T14:10:12;16.60;1.00
26164;DHT22;13914;48.178;11.716;2024-03-25T14:12:38;16.60;1.00
26164;DHT22;13914;48.178;11.716;2024-03-25T14:15:04;16.60;1.00
26164;DHT22;13914;48.178;11.716;2024-03-25T14:17:30;16.70;1.00
26164;DHT22;13914;48.178;11.716;2024-03-25T14:19:56;16.60;1.00
26164;DHT22;13914;48.178;11.716;2024-03-25T14:22:22;16.60;1.00
26164;DHT22;13914;48.178;11.716;2024-03-25T14:24:48;16.60;1.00
26164;DHT22;13914;48.178;11.716;2024-03-25T14:27:14;16.60;1.00
26164;DHT22;13914;48.178;11.716;2024-03-25T14:29:40;16.70;1.90
26164;DHT22;13914;48.178;11.716;2024-03-25T14:32:07;16.60;1.00
26164;DHT22;13914;48.178;11.716;2024-03-25T14:34:33;16.70;1.00
26164;DHT22;13914;48.178;11.716;2024-03-25T14:36:59;16.70;1.00
26164;DHT22;13914;48.178;11.716;2024-03-25T14:39:27;16.70;1.00
26164;DHT22;13914;48.178;11.716;2024-03-25T14:41:53;16.70;1.00
26164;DHT22;13914;48.178;11.716;2024-03-25T14:44:18;16.70;1.00
26164;DHT22;13914;48.178;11.716;2024-03-25T14:46:44;16.70;1.00
26164;DHT22;13914;48.178;11.716;2024-03-25T14:49:09;16.70;1.00
26164;DHT22;13914;48.178;11.716;2024-03-25T14:51:35;16.60;1.00
26164;DHT22;13914;48.178;11.716;2024-03-25T14:54:01;16.60;1.00
26164;DHT22;13914;48.178;11.716;2024-03-25T14:56:28;16.60;1.00
26164;DHT22;13914;48.178;11.716;2024-03-25T14:58:54;16.50;1.00
26164;DHT22;13914;48.178;11.716;2024-03-25T15:01:20;16.50;1.00
26164;DHT22;13914;48.178;11.716;2024-03-25T15:03:46;16.50;1.00
26164;DHT22;13914;48.178;11.716;2024-03-25T15:06:12;16.40;1.00
26164;DHT22;13914;48.178;11.716;2024-03-25T15:08:38;16.30;1.00
26164;DHT22;13914;48.178;11.716;2024-03-25T15:11:05;16.30;1.00
26164;DHT22;13914;48.178;11.716;2024-03-25T15:13:31;16.30;1.00
26164;DHT22;13914;48.178;11.716;2024-03-25T15:15:57;16.30;1.00
26164;DHT22;13914;48.178;11.716;2024-03-25T15:18:23;16.20;1.00
26164;DHT22;13914;48.178;11.716;2024-03-25T15:21:04;16.10;1.00
26164;DHT22;13914;48.178;11.716;2024-03-25T15:23:30;16.10;1.00
26164;DHT22;13914;48.178;11.716;2024-03-25T15:25:56;16.10;1.00
26164;DHT22;13914;48.178;11.716;2024-03-25T15:28:23;16.00;1.00
26164;DHT22;13914;48.178;11.716;2024-03-25T15:30:49;16.00;1.00
26164;DHT22;13914;48.178;11.716;2024-03-25T15:33:16;16.00;1.00